sensor_id;sensor_type;location;lat;lon;timestamp;pressure;altitude;pressure_sealevel;temperature
13570;BMP180;6856;51.460;7.158;2022-10-22T09:37:49;100211.00;;;19.60
13570;BMP180;6856;51.460;7.158;2022-10-22T09:40:23;100199.00;;;19.90
13570;BMP180;6856;51.460;7.158;2022-10-22T09:42:57;100226.00;;;19.90
13570;BMP180;6856;51.460;7.158;2022-10-22T09:45:31;100210.00;;;20.00
13570;BMP180;6856;51.460;7.158;2022-10-22T09:48:20;100237.00;;;20.00
13570;BMP180;6856;51.460;7.158;2022-10-22T09:51:12;100226.00;;;20.10
13570;BMP180;6856;51.460;7.158;2022-10-22T09:53:57;100228.00;;;20.10
13570;BMP180;6856;51.460;7.158;2022-10-22T09:56:36;100227.00;;;20.10
13570;BMP180;6856;51.460;7.158;2022-10-22T09:59:14;100229.00;;;20.10
13570;BMP180;6856;51.460;7.158;2022-10-22T10:01:58;100241.00;;;20.20
13570;BMP180;6856;51.460;7.158;2022-10-22T10:04:56;100244.00;;;20.20
13570;BMP180;6856;51.460;7.158;2022-10-22T10:07:33;100244.00;;;20.20
13570;BMP180;6856;51.460;7.158;2022-10-22T10:10:20;100243.00;;;20.20
13570;BMP180;6856;51.460;7.158;2022-10-22T10:13:15;100253.00;;;20.20
13570;BMP180;6856;51.460;7.158;2022-10-22T10:15:57;100263.00;;;20.20
13570;BMP180;6856;51.460;7.158;2022-10-22T10:18:51;100253.00;;;20.20
13570;BMP180;6856;51.460;7.158;2022-10-22T10:21:37;100261.00;;;20.20
13570;BMP180;6856;51.460;7.158;2022-10-22T10:24:24;100268.00;;;20.30
13570;BMP180;6856;51.460;7.158;2022-10-22T10:27:11;100243.00;;;20.30
13570;BMP180;6856;51.460;7.158;2022-10-22T10:29:59;100265.00;;;20.30
13570;BMP180;6856;51.460;7.158;2022-10-22T10:33:04;100276.00;;;20.30
13570;BMP180;6856;51.460;7.158;2022-10-22T10:35:50;100290.00;;;20.30
13570;BMP180;6856;51.460;7.158;2022-10-22T10:38:43;100282.00;;;20.30
13570;BMP180;6856;51.460;7.158;2022-10-22T10:41:35;100284.00;;;20.30
13570;BMP180;6856;51.460;7.158;2022-10-22T10:44:37;100289.00;;;20.40
13570;BMP180;6856;51.460;7.158;2022-10-22T10:47:39;100284.00;;;20.40
13570;BMP180;6856;51.460;7.158;2022-10-22T10:50:26;100293.00;;;20.40
13570;BMP180;6856;51.460;7.158;2022-10-22T10:53:13;100285.00;;;20.40
13570;BMP180;6856;51.460;7.158;2022-10-22T10:56:00;100271.00;;;20.50
13570;BMP180;6856;51.460;7.158;2022-10-22T10:58:47;100280.00;;;20.50
13570;BMP180;6856;51.460;7.158;2022-10-22T11:01:38;100281.00;;;20.50
13570;BMP180;6856;51.460;7.158;2022-10-22T11:04:58;100274.00;;;20.50
13570;BMP180;6856;51.460;7.158;2022-10-22T11:07:41;100273.00;;;20.50
13570;BMP180;6856;51.460;7.158;2022-10-22T11:10:26;100284.00;;;20.60
13570;BMP180;6856;51.460;7.158;2022-10-22T11:13:13;100275.00;;;20.60
13570;BMP180;6856;51.460;7.158;2022-10-22T11:15:56;100281.00;;;20.60
13570;BMP180;6856;51.460;7.158;2022-10-22T11:18:38;100287.00;;;20.70
13570;BMP180;6856;51.460;7.158;2022-10-22T11:21:22;100292.00;;;20.70
13570;BMP180;6856;51.460;7.158;2022-10-22T11:24:11;100288.00;;;20.70
13570;BMP180;6856;51.460;7.158;2022-10-22T11:26:51;100279.00;;;20.70
13570;BMP180;6856;51.460;7.158;2022-10-22T11:29:35;100281.00;;;20.70
13570;BMP180;6856;51.460;7.158;2022-10-22T11:32:16;100288.00;;;20.80
13570;BMP180;6856;51.460;7.158;2022-10-22T11:34:56;100288.00;;;20.70
13570;BMP180;6856;51.460;7.158;2022-10-22T11:37:34;100295.00;;;20.80
13570;BMP180;6856;51.460;7.158;2022-10-22T11:40:18;100295.00;;;20.90
13570;BMP180;6856;51.460;7.158;2022-10-22T11:42:55;100292.00;;;20.90
13570;BMP180;6856;51.460;7.158;2022-10-22T11:45:36;100293.00;;;20.90
13570;BMP180;6856;51.460;7.158;2022-10-22T11:48:17;100292.00;;;20.90
13570;BMP180;6856;51.460;7.158;2022-10-22T11:50:56;100296.00;;;20.90
13570;BMP180;6856;51.460;7.158;2022-10-22T11:53:35;100289.00;;;20.90
13570;BMP180;6856;51.460;7.158;2022-10-22T11:56:24;100308.00;;;20.90
13570;BMP180;6856;51.460;7.158;2022-10-22T11:58:59;100297.00;;;20.90
13570;BMP180;6856;51.460;7.158;2022-10-22T12:01:46;100297.00;;;21.00
13570;BMP180;6856;51.460;7.158;2022-10-22T12:04:21;100302.00;;;20.90
13570;BMP180;6856;51.460;7.158;2022-10-22T12:07:00;100303.00;;;20.90
13570;BMP180;6856;51.460;7.158;2022-10-22T12:09:41;100301.00;;;20.90
13570;BMP180;6856;51.460;7.158;2022-10-22T12:12:15;100298.00;;;20.90
13570;BMP180;6856;51.460;7.158;2022-10-22T12:14:56;100285.00;;;20.90
13570;BMP180;6856;51.460;7.158;2022-10-22T12:17:30;100299.00;;;20.90
13570;BMP180;6856;51.460;7.158;2022-10-22T12:20:12;100285.00;;;21.00
13570;BMP180;6856;51.460;7.158;2022-10-22T12:22:47;100295.00;;;21.00
13570;BMP180;6856;51.460;7.158;2022-10-22T12:25:24;100299.00;;;21.00
13570;BMP180;6856;51.460;7.158;2022-10-22T12:27:59;100288.00;;;21.00
13570;BMP180;6856;51.460;7.158;2022-10-22T12:30:33;100291.00;;;21.00
13570;BMP180;6856;51.460;7.158;2022-10-22T12:33:18;100282.00;;;21.00
13570;BMP180;6856;51.460;7.158;2022-10-22T12:35:54;100277.00;;;21.00
13570;BMP180;6856;51.460;7.158;2022-10-22T12:38:30;100273.00;;;21.00
13570;BMP180;6856;51.460;7.158;2022-10-22T12:41:04;100287.00;;;21.00
13570;BMP180;6856;51.460;7.158;2022-10-22T12:43:38;100290.00;;;21.00
13570;BMP180;6856;51.460;7.158;2022-10-22T12:46:14;100299.00;;;21.00
13570;BMP180;6856;51.460;7.158;2022-10-22T12:48:49;100295.00;;;21.10
13570;BMP180;6856;51.460;7.158;2022-10-22T12:51:22;100294.00;;;21.10
13570;BMP180;6856;51.460;7.158;2022-10-22T12:54:09;100282.00;;;21.10
13570;BMP180;6856;51.460;7.158;2022-10-22T12:56:47;100295.00;;;21.10
13570;BMP180;6856;51.460;7.158;2022-10-22T12:59:24;100293.00;;;21.10
13570;BMP180;6856;51.460;7.158;2022-10-22T13:01:59;100284.00;;;21.10
13570;BMP180;6856;51.460;7.158;2022-10-22T13:04:35;100276.00;;;21.10
13570;BMP180;6856;51.460;7.158;2022-10-22T13:07:18;100265.00;;;21.10
13570;BMP180;6856;51.460;7.158;2022-10-22T13:09:59;100264.00;;;21.10
13570;BMP180;6856;51.460;7.158;2022-10-22T13:12:35;100274.00;;;21.10
13570;BMP180;6856;51.460;7.158;2022-10-22T13:15:36;100280.00;;;21.10
13570;BMP180;6856;51.460;7.158;2022-10-22T13:18:19;100287.00;;;21.10
13570;BMP180;6856;51.460;7.158;2022-10-22T13:20:56;100290.00;;;21.10
13570;BMP180;6856;51.460;7.158;2022-10-22T13:23:33;100287.00;;;21.10
13570;BMP180;6856;51.460;7.158;2022-10-22T13:26:16;100287.00;;;21.20
13570;BMP180;6856;51.460;7.158;2022-10-22T13:28:52;100289.00;;;21.20
13570;BMP180;6856;51.460;7.158;2022-10-22T13:31:29;100285.00;;;21.20
13570;BMP180;6856;51.460;7.158;2022-10-22T13:34:05;100293.00;;;21.20
13570;BMP180;6856;51.460;7.158;2022-10-22T13:36:44;100297.00;;;21.20
13570;BMP180;6856;51.460;7.158;2022-10-22T13:39:19;100307.00;;;21.20
13570;BMP180;6856;51.460;7.158;2022-10-22T13:41:54;100298.00;;;21.10
13570;BMP180;6856;51.460;7.158;2022-10-22T13:44:28;100289.00;;;21.20
13570;BMP180;6856;51.460;7.158;2022-10-22T13:47:01;100299.00;;;21.20
13570;BMP180;6856;51.460;7.158;2022-10-22T13:49:34;100295.00;;;21.20
13570;BMP180;6856;51.460;7.158;2022-10-22T13:52:14;100288.00;;;21.20
13570;BMP180;6856;51.460;7.158;2022-10-22T13:54:49;100288.00;;;21.20
13570;BMP180;6856;51.460;7.158;2022-10-22T13:57:28;100308.00;;;21.30
13570;BMP180;6856;51.460;7.158;2022-10-22T14:00:01;100319.00;;;21.30
13570;BMP180;6856;51.460;7.158;2022-10-22T14:02:35;100306.00;;;21.20
13570;BMP180;6856;51.460;7.158;2022-10-22T14:05:09;100319.00;;;21.30
13570;BMP180;6856;51.460;7.158;2022-10-22T14:07:44;100331.00;;;21.20
13570;BMP180;6856;51.460;7.158;2022-10-22T14:10:21;100321.00;;;21.20
13570;BMP180;6856;51.460;7.158;2022-10-22T14:12:56;100323.00;;;21.20
13570;BMP180;6856;51.460;7.158;2022-10-22T14:15:30;100320.00;;;21.20
13570;BMP180;6856;51.460;7.158;2022-10-22T14:18:06;100308.00;;;21.20
13570;BMP180;6856;51.460;7.158;2022-10-22T14:20:42;100306.00;;;21.20
13570;BMP180;6856;51.460;7.158;2022-10-22T14:23:20;100319.00;;;21.20
13570;BMP180;6856;51.460;7.158;2022-10-22T14:25:55;100325.00;;;21.20
13570;BMP180;6856;51.460;7.158;2022-10-22T14:28:30;100313.00;;;21.30
13570;BMP180;6856;51.460;7.158;2022-10-22T14:31:17;100306.00;;;21.30
13570;BMP180;6856;51.460;7.158;2022-10-22T14:33:50;100307.00;;;21.30
13570;BMP180;6856;51.460;7.158;2022-10-22T14:36:24;100316.00;;;21.30
13570;BMP180;6856;51.460;7.158;2022-10-22T14:38:57;100309.00;;;21.40
13570;BMP180;6856;51.460;7.158;2022-10-22T14:41:31;100314.00;;;21.40
13570;BMP180;6856;51.460;7.158;2022-10-22T14:44:10;100321.00;;;21.40
13570;BMP180;6856;51.460;7.158;2022-10-22T14:46:45;100308.00;;;21.40
13570;BMP180;6856;51.460;7.158;2022-10-22T14:49:19;100315.00;;;21.40
13570;BMP180;6856;51.460;7.158;2022-10-22T14:51:52;100302.00;;;21.40
13570;BMP180;6856;51.460;7.158;2022-10-22T14:54:26;100315.00;;;21.40
13570;BMP180;6856;51.460;7.158;2022-10-22T14:57:00;100325.00;;;21.40
13570;BMP180;6856;51.460;7.158;2022-10-22T14:59:35;100317.00;;;21.40
13570;BMP180;6856;51.460;7.158;2022-10-22T15:02:11;100322.00;;;21.50
13570;BMP180;6856;51.460;7.158;2022-10-22T15:04:45;100323.00;;;21.40
13570;BMP180;6856;51.460;7.158;2022-10-22T15:07:19;100323.00;;;21.40
13570;BMP180;6856;51.460;7.158;2022-10-22T15:09:53;100305.00;;;21.40
13570;BMP180;6856;51.460;7.158;2022-10-22T15:12:27;100332.00;;;21.40
13570;BMP180;6856;51.460;7.158;2022-10-22T15:15:03;100325.00;;;21.40
13570;BMP180;6856;51.460;7.158;2022-10-22T15:17:37;100332.00;;;21.40
13570;BMP180;6856;51.460;7.158;2022-10-22T15:20:11;100337.00;;;21.40
13570;BMP180;6856;51.460;7.158;2022-10-22T15:22:44;100343.00;;;21.40
13570;BMP180;6856;51.460;7.158;2022-10-22T15:25:18;100323.00;;;21.40
13570;BMP180;6856;51.460;7.158;2022-10-22T15:27:52;100343.00;;;21.40
13570;BMP180;6856;51.460;7.158;2022-10-22T15:30:37;100331.00;;;21.40
13570;BMP180;6856;51.460;7.158;2022-10-22T15:33:10;100351.00;;;21.40
13570;BMP180;6856;51.460;7.158;2022-10-22T15:35:44;100353.00;;;21.40
13570;BMP180;6856;51.460;7.158;2022-10-22T15:38:17;100358.00;;;21.40
13570;BMP180;6856;51.460;7.158;2022-10-22T15:40:59;100350.00;;;21.40
13570;BMP180;6856;51.460;7.158;2022-10-22T15:43:36;100294.00;;;21.40
13570;BMP180;6856;51.460;7.158;2022-10-22T15:46:15;100353.00;;;21.40
13570;BMP180;6856;51.460;7.158;2022-10-22T15:48:48;100348.00;;;21.40
13570;BMP180;6856;51.460;7.158;2022-10-22T15:51:24;100352.00;;;21.40
13570;BMP180;6856;51.460;7.158;2022-10-22T15:53:59;100342.00;;;21.40
13570;BMP180;6856;51.460;7.158;2022-10-22T15:56:32;100345.00;;;21.40
13570;BMP180;6856;51.460;7.158;2022-10-22T15:59:05;100355.00;;;21.40
13570;BMP180;6856;51.460;7.158;2022-10-22T16:01:41;100347.00;;;21.40
13570;BMP180;6856;51.460;7.158;2022-10-22T16:04:15;100362.00;;;21.40
13570;BMP180;6856;51.460;7.158;2022-10-22T16:07:01;100351.00;;;21.40
13570;BMP180;6856;51.460;7.158;2022-10-22T16:09:35;100339.00;;;21.40
13570;BMP180;6856;51.460;7.158;2022-10-22T16:12:09;100369.00;;;21.40
13570;BMP180;6856;51.460;7.158;2022-10-22T16:14:49;100359.00;;;21.40
13570;BMP180;6856;51.460;7.158;2022-10-22T16:17:24;100356.00;;;21.30
13570;BMP180;6856;51.460;7.158;2022-10-22T16:19:57;100369.00;;;21.30
13570;BMP180;6856;51.460;7.158;2022-10-22T16:22:32;100372.00;;;21.30
13570;BMP180;6856;51.460;7.158;2022-10-22T16:25:06;100364.00;;;21.30
13570;BMP180;6856;51.460;7.158;2022-10-22T16:27:41;100360.00;;;21.30
13570;BMP180;6856;51.460;7.158;2022-10-22T16:30:14;100352.00;;;21.30
13570;BMP180;6856;51.460;7.158;2022-10-22T16:32:50;100375.00;;;21.10
13570;BMP180;6856;51.460;7.158;2022-10-22T16:35:24;100380.00;;;21.20
13570;BMP180;6856;51.460;7.158;2022-10-22T16:37:58;100376.00;;;21.10
13570;BMP180;6856;51.460;7.158;2022-10-22T16:40:31;100376.00;;;21.10
13570;BMP180;6856;51.460;7.158;2022-10-22T16:43:04;100365.00;;;21.00
13570;BMP180;6856;51.460;7.158;2022-10-22T16:45:38;100380.00;;;21.10
13570;BMP180;6856;51.460;7.158;2022-10-22T16:48:15;100371.00;;;21.00
13570;BMP180;6856;51.460;7.158;2022-10-22T16:50:48;100379.00;;;21.00
13570;BMP180;6856;51.460;7.158;2022-10-22T16:53:22;100376.00;;;20.90
13570;BMP180;6856;51.460;7.158;2022-10-22T16:55:56;100371.00;;;20.90
13570;BMP180;6856;51.460;7.158;2022-10-22T16:58:29;100372.00;;;20.90
13570;BMP180;6856;51.460;7.158;2022-10-22T17:01:06;100362.00;;;20.80
13570;BMP180;6856;51.460;7.158;2022-10-22T17:03:41;100375.00;;;20.80
13570;BMP180;6856;51.460;7.158;2022-10-22T17:06:14;100383.00;;;20.80
13570;BMP180;6856;51.460;7.158;2022-10-22T17:08:48;100363.00;;;20.70
13570;BMP180;6856;51.460;7.158;2022-10-22T17:11:23;100380.00;;;20.70
13570;BMP180;6856;51.460;7.158;2022-10-22T17:13:57;100381.00;;;20.60
13570;BMP180;6856;51.460;7.158;2022-10-22T17:16:30;100385.00;;;20.60
13570;BMP180;6856;51.460;7.158;2022-10-22T17:19:05;100385.00;;;20.50
13570;BMP180;6856;51.460;7.158;2022-10-22T17:21:40;100388.00;;;20.50
13570;BMP180;6856;51.460;7.158;2022-10-22T17:24:16;100402.00;;;20.40
13570;BMP180;6856;51.460;7.158;2022-10-22T17:26:50;100390.00;;;20.30
13570;BMP180;6856;51.460;7.158;2022-10-22T17:29:23;100393.00;;;20.30
13570;BMP180;6856;51.460;7.158;2022-10-22T17:31:58;100394.00;;;20.30
13570;BMP180;6856;51.460;7.158;2022-10-22T17:34:34;100376.00;;;20.20
13570;BMP180;6856;51.460;7.158;2022-10-22T17:37:09;100393.00;;;20.20
13570;BMP180;6856;51.460;7.158;2022-10-22T17:39:42;100401.00;;;20.10
13570;BMP180;6856;51.460;7.158;2022-10-22T17:42:16;100399.00;;;20.10
13570;BMP180;6856;51.460;7.158;2022-10-22T17:44:49;100404.00;;;20.00
13570;BMP180;6856;51.460;7.158;2022-10-22T17:47:23;100395.00;;;20.00
13570;BMP180;6856;51.460;7.158;2022-10-22T17:49:58;100402.00;;;19.90
13570;BMP180;6856;51.460;7.158;2022-10-22T17:52:32;100406.00;;;19.90
13570;BMP180;6856;51.460;7.158;2022-10-22T17:55:06;100392.00;;;19.80
13570;BMP180;6856;51.460;7.158;2022-10-22T17:57:40;100404.00;;;19.80
13570;BMP180;6856;51.460;7.158;2022-10-22T18:00:14;100389.00;;;19.70
13570;BMP180;6856;51.460;7.158;2022-10-22T18:02:51;100400.00;;;19.70
13570;BMP180;6856;51.460;7.158;2022-10-22T18:05:26;100405.00;;;19.60
13570;BMP180;6856;51.460;7.158;2022-10-22T18:08:00;100407.00;;;19.60
13570;BMP180;6856;51.460;7.158;2022-10-22T18:10:39;100407.00;;;19.50
13570;BMP180;6856;51.460;7.158;2022-10-22T18:13:12;100391.00;;;19.50
13570;BMP180;6856;51.460;7.158;2022-10-22T18:15:53;100385.00;;;19.40
13570;BMP180;6856;51.460;7.158;2022-10-22T18:18:27;100404.00;;;19.40
13570;BMP180;6856;51.460;7.158;2022-10-22T18:21:02;100405.00;;;19.30
13570;BMP180;6856;51.460;7.158;2022-10-22T18:23:36;100405.00;;;19.30
13570;BMP180;6856;51.460;7.158;2022-10-22T18:26:09;100403.00;;;19.30
13570;BMP180;6856;51.460;7.158;2022-10-22T18:28:43;100392.00;;;19.30
13570;BMP180;6856;51.460;7.158;2022-10-22T18:31:25;100407.00;;;19.20
13570;BMP180;6856;51.460;7.158;2022-10-22T18:33:59;100415.00;;;19.20
13570;BMP180;6856;51.460;7.158;2022-10-22T18:36:33;100372.00;;;19.10
13570;BMP180;6856;51.460;7.158;2022-10-22T18:39:07;100410.00;;;19.10
13570;BMP180;6856;51.460;7.158;2022-10-22T18:41:41;100402.00;;;19.10
13570;BMP180;6856;51.460;7.158;2022-10-22T18:44:15;100401.00;;;19.00
13570;BMP180;6856;51.460;7.158;2022-10-22T18:46:49;100422.00;;;19.00
13570;BMP180;6856;51.460;7.158;2022-10-22T18:49:22;100410.00;;;19.00
13570;BMP180;6856;51.460;7.158;2022-10-22T18:51:57;100405.00;;;19.00
13570;BMP180;6856;51.460;7.158;2022-10-22T18:54:31;100400.00;;;19.00
13570;BMP180;6856;51.460;7.158;2022-10-22T18:57:11;100392.00;;;18.90
13570;BMP180;6856;51.460;7.158;2022-10-22T18:59:49;100402.00;;;18.90
13570;BMP180;6856;51.460;7.158;2022-10-22T19:02:28;100400.00;;;18.90
13570;BMP180;6856;51.460;7.158;2022-10-22T19:05:01;100404.00;;;18.90
13570;BMP180;6856;51.460;7.158;2022-10-22T19:07:36;100382.00;;;18.80
13570;BMP180;6856;51.460;7.158;2022-10-22T19:10:11;100406.00;;;18.80
13570;BMP180;6856;51.460;7.158;2022-10-22T19:12:45;100405.00;;;18.80
13570;BMP180;6856;51.460;7.158;2022-10-22T19:15:19;100401.00;;;18.80
13570;BMP180;6856;51.460;7.158;2022-10-22T19:17:52;100397.00;;;18.80
13570;BMP180;6856;51.460;7.158;2022-10-22T19:20:26;100405.00;;;18.80
13570;BMP180;6856;51.460;7.158;2022-10-22T19:23:01;100406.00;;;18.70
13570;BMP180;6856;51.460;7.158;2022-10-22T19:25:36;100404.00;;;18.70
13570;BMP180;6856;51.460;7.158;2022-10-22T19:28:09;100402.00;;;18.70
13570;BMP180;6856;51.460;7.158;2022-10-22T19:30:43;100390.00;;;18.70
13570;BMP180;6856;51.460;7.158;2022-10-22T19:33:16;100398.00;;;18.70
13570;BMP180;6856;51.460;7.158;2022-10-22T19:36:04;100370.00;;;18.70
13570;BMP180;6856;51.460;7.158;2022-10-22T19:38:44;100395.00;;;18.60
13570;BMP180;6856;51.460;7.158;2022-10-22T19:41:20;100392.00;;;18.60
13570;BMP180;6856;51.460;7.158;2022-10-22T19:43:58;100374.00;;;18.60
13570;BMP180;6856;51.460;7.158;2022-10-22T19:46:32;100395.00;;;18.60
13570;BMP180;6856;51.460;7.158;2022-10-22T19:49:09;100352.00;;;18.60
13570;BMP180;6856;51.460;7.158;2022-10-22T19:51:43;100387.00;;;18.60
13570;BMP180;6856;51.460;7.158;2022-10-22T19:54:18;100381.00;;;18.60
13570;BMP180;6856;51.460;7.158;2022-10-22T19:56:52;100383.00;;;18.60
13570;BMP180;6856;51.460;7.158;2022-10-22T19:59:26;100381.00;;;18.50
13570;BMP180;6856;51.460;7.158;2022-10-22T20:02:03;100381.00;;;18.50
13570;BMP180;6856;51.460;7.158;2022-10-22T20:04:36;100387.00;;;18.50
13570;BMP180;6856;51.460;7.158;2022-10-22T20:07:10;100387.00;;;18.50
13570;BMP180;6856;51.460;7.158;2022-10-22T20:09:48;100396.00;;;18.40
13570;BMP180;6856;51.460;7.158;2022-10-22T20:12:22;100394.00;;;18.40
13570;BMP180;6856;51.460;7.158;2022-10-22T20:14:56;100393.00;;;18.40
13570;BMP180;6856;51.460;7.158;2022-10-22T20:17:29;100390.00;;;18.40
13570;BMP180;6856;51.460;7.158;2022-10-22T20:20:03;100404.00;;;18.40
13570;BMP180;6856;51.460;7.158;2022-10-22T20:22:38;100398.00;;;18.40
13570;BMP180;6856;51.460;7.158;2022-10-22T20:25:17;100407.00;;;18.40
13570;BMP180;6856;51.460;7.158;2022-10-22T20:27:51;100401.00;;;18.40
13570;BMP180;6856;51.460;7.158;2022-10-22T20:30:25;100390.00;;;18.40
13570;BMP180;6856;51.460;7.158;2022-10-22T20:33:01;100392.00;;;18.30
13570;BMP180;6856;51.460;7.158;2022-10-22T20:35:35;100394.00;;;18.30
13570;BMP180;6856;51.460;7.158;2022-10-22T20:38:13;100398.00;;;18.30
13570;BMP180;6856;51.460;7.158;2022-10-22T20:40:58;100403.00;;;18.30
13570;BMP180;6856;51.460;7.158;2022-10-22T20:43:33;100389.00;;;18.30
13570;BMP180;6856;51.460;7.158;2022-10-22T20:46:07;100393.00;;;18.30
13570;BMP180;6856;51.460;7.158;2022-10-22T20:48:40;100383.00;;;18.30
13570;BMP180;6856;51.460;7.158;2022-10-22T20:51:13;100395.00;;;18.30
13570;BMP180;6856;51.460;7.158;2022-10-22T20:53:47;100377.00;;;18.30
13570;BMP180;6856;51.460;7.158;2022-10-22T20:56:22;100398.00;;;18.20
13570;BMP180;6856;51.460;7.158;2022-10-22T20:58:57;100397.00;;;18.30
13570;BMP180;6856;51.460;7.158;2022-10-22T21:01:39;100393.00;;;18.30
13570;BMP180;6856;51.460;7.158;2022-10-22T21:04:14;100391.00;;;18.30
13570;BMP180;6856;51.460;7.158;2022-10-22T21:06:48;100388.00;;;18.30
13570;BMP180;6856;51.460;7.158;2022-10-22T21:09:23;100395.00;;;18.30
13570;BMP180;6856;51.460;7.158;2022-10-22T21:11:58;100373.00;;;18.30
13570;BMP180;6856;51.460;7.158;2022-10-22T21:14:35;100390.00;;;18.30
13570;BMP180;6856;51.460;7.158;2022-10-22T21:17:08;100389.00;;;18.30
13570;BMP180;6856;51.460;7.158;2022-10-22T21:19:42;100370.00;;;18.30
13570;BMP180;6856;51.460;7.158;2022-10-22T21:22:17;100387.00;;;18.30
13570;BMP180;6856;51.460;7.158;2022-10-22T21:24:50;100385.00;;;18.30
13570;BMP180;6856;51.460;7.158;2022-10-22T21:27:27;100375.00;;;18.30
13570;BMP180;6856;51.460;7.158;2022-10-22T21:30:01;100391.00;;;18.30
13570;BMP180;6856;51.460;7.158;2022-10-22T21:32:34;100393.00;;;18.30
13570;BMP180;6856;51.460;7.158;2022-10-22T21:35:08;100386.00;;;18.30
13570;BMP180;6856;51.460;7.158;2022-10-22T21:37:42;100391.00;;;18.20
13570;BMP180;6856;51.460;7.158;2022-10-22T21:40:16;100394.00;;;18.20
13570;BMP180;6856;51.460;7.158;2022-10-22T21:42:51;100372.00;;;18.20
13570;BMP180;6856;51.460;7.158;2022-10-22T21:45:25;100374.00;;;18.20
13570;BMP180;6856;51.460;7.158;2022-10-22T21:47:58;100374.00;;;18.20
13570;BMP180;6856;51.460;7.158;2022-10-22T21:50:38;100390.00;;;18.20
13570;BMP180;6856;51.460;7.158;2022-10-22T21:53:11;100385.00;;;18.20
13570;BMP180;6856;51.460;7.158;2022-10-22T21:55:45;100391.00;;;18.20
13570;BMP180;6856;51.460;7.158;2022-10-22T21:58:20;100386.00;;;18.20
13570;BMP180;6856;51.460;7.158;2022-10-22T22:00:56;100381.00;;;18.20
13570;BMP180;6856;51.460;7.158;2022-10-22T22:03:30;100389.00;;;18.20
13570;BMP180;6856;51.460;7.158;2022-10-22T22:06:05;100389.00;;;18.20
13570;BMP180;6856;51.460;7.158;2022-10-22T22:08:39;100396.00;;;18.20
13570;BMP180;6856;51.460;7.158;2022-10-22T22:11:15;100405.00;;;18.20
13570;BMP180;6856;51.460;7.158;2022-10-22T22:13:53;100394.00;;;18.20
13570;BMP180;6856;51.460;7.158;2022-10-22T22:16:30;100369.00;;;18.20
13570;BMP180;6856;51.460;7.158;2022-10-22T22:19:08;100385.00;;;18.20
13570;BMP180;6856;51.460;7.158;2022-10-22T22:21:42;100382.00;;;18.20
13570;BMP180;6856;51.460;7.158;2022-10-22T22:24:15;100385.00;;;18.20
13570;BMP180;6856;51.460;7.158;2022-10-22T22:26:49;100386.00;;;18.30
13570;BMP180;6856;51.460;7.158;2022-10-22T22:29:24;100385.00;;;18.30
13570;BMP180;6856;51.460;7.158;2022-10-22T22:31:57;100375.00;;;18.30
13570;BMP180;6856;51.460;7.158;2022-10-22T22:34:41;100385.00;;;18.30
13570;BMP180;6856;51.460;7.158;2022-10-22T22:37:14;100381.00;;;18.30
13570;BMP180;6856;51.460;7.158;2022-10-22T22:39:48;100372.00;;;18.30
13570;BMP180;6856;51.460;7.158;2022-10-22T22:42:21;100369.00;;;18.30
13570;BMP180;6856;51.460;7.158;2022-10-22T22:44:57;100367.00;;;18.30
13570;BMP180;6856;51.460;7.158;2022-10-22T22:47:30;100345.00;;;18.30
13570;BMP180;6856;51.460;7.158;2022-10-22T22:50:05;100365.00;;;18.20
13570;BMP180;6856;51.460;7.158;2022-10-22T22:52:39;100362.00;;;18.30
13570;BMP180;6856;51.460;7.158;2022-10-22T22:55:14;100350.00;;;18.30
13570;BMP180;6856;51.460;7.158;2022-10-22T22:57:47;100354.00;;;18.30
13570;BMP180;6856;51.460;7.158;2022-10-22T23:00:22;100321.00;;;18.30
13570;BMP180;6856;51.460;7.158;2022-10-22T23:02:57;100368.00;;;18.30
13570;BMP180;6856;51.460;7.158;2022-10-22T23:05:30;100342.00;;;18.30
13570;BMP180;6856;51.460;7.158;2022-10-22T23:08:04;100367.00;;;18.30
13570;BMP180;6856;51.460;7.158;2022-10-22T23:10:37;100345.00;;;18.30
13570;BMP180;6856;51.460;7.158;2022-10-22T23:13:13;100350.00;;;18.30
13570;BMP180;6856;51.460;7.158;2022-10-22T23:15:48;100347.00;;;18.20
13570;BMP180;6856;51.460;7.158;2022-10-22T23:18:22;100341.00;;;18.30
13570;BMP180;6856;51.460;7.158;2022-10-22T23:20:55;100351.00;;;18.30
13570;BMP180;6856;51.460;7.158;2022-10-22T23:23:31;100341.00;;;18.30
13570;BMP180;6856;51.460;7.158;2022-10-22T23:26:05;100333.00;;;18.30
13570;BMP180;6856;51.460;7.158;2022-10-22T23:28:42;100345.00;;;18.30
13570;BMP180;6856;51.460;7.158;2022-10-22T23:31:19;100341.00;;;18.30
13570;BMP180;6856;51.460;7.158;2022-10-22T23:33:53;100345.00;;;18.30
13570;BMP180;6856;51.460;7.158;2022-10-22T23:36:27;100320.00;;;18.30
13570;BMP180;6856;51.460;7.158;2022-10-22T23:39:10;100338.00;;;18.20
13570;BMP180;6856;51.460;7.158;2022-10-22T23:41:44;100339.00;;;18.30
13570;BMP180;6856;51.460;7.158;2022-10-22T23:44:24;100323.00;;;18.30
13570;BMP180;6856;51.460;7.158;2022-10-22T23:46:59;100336.00;;;18.30
13570;BMP180;6856;51.460;7.158;2022-10-22T23:49:33;100332.00;;;18.30
13570;BMP180;6856;51.460;7.158;2022-10-22T23:52:07;100303.00;;;18.30
13570;BMP180;6856;51.460;7.158;2022-10-22T23:54:40;100343.00;;;18.30
13570;BMP180;6856;51.460;7.158;2022-10-22T23:57:14;100338.00;;;18.30
13570;BMP180;6856;51.460;7.158;2022-10-22T23:59:47;100321.00;;;18.20
